sensor_id;sensor_type;location;lat;lon;timestamp;temperature;humidity
38604;DHT22;24924;50.054;8.790;2023-08-06T00:00:49;14.60;99.90
38604;DHT22;24924;50.054;8.790;2023-08-06T00:05:44;17.00;99.90
38604;DHT22;24924;50.054;8.790;2023-08-06T00:08:10;15.10;99.90
38604;DHT22;24924;50.054;8.790;2023-08-06T00:10:35;16.10;99.90
38604;DHT22;24924;50.054;8.790;2023-08-06T00:17:53;17.20;99.90
38604;DHT22;24924;50.054;8.790;2023-08-06T00:20:19;14.60;99.90
38604;DHT22;24924;50.054;8.790;2023-08-06T00:22:45;16.10;99.90
38604;DHT22;24924;50.054;8.790;2023-08-06T00:30:04;16.80;99.90
38604;DHT22;24924;50.054;8.790;2023-08-06T00:32:30;17.10;99.90
38604;DHT22;24924;50.054;8.790;2023-08-06T00:37:22;17.40;99.90
38604;DHT22;24924;50.054;8.790;2023-08-06T00:52:06;17.10;99.90
38604;DHT22;24924;50.054;8.790;2023-08-06T00:54:36;17.80;99.90
38604;DHT22;24924;50.054;8.790;2023-08-06T00:57:03;16.20;99.90
38604;DHT22;24924;50.054;8.790;2023-08-06T00:59:31;16.90;99.90
38604;DHT22;24924;50.054;8.790;2023-08-06T01:04:23;16.30;99.90
38604;DHT22;24924;50.054;8.790;2023-08-06T01:12:28;17.00;99.90
38604;DHT22;24924;50.054;8.790;2023-08-06T01:17:23;16.60;99.90
38604;DHT22;24924;50.054;8.790;2023-08-06T01:19:49;14.60;99.90
38604;DHT22;24924;50.054;8.790;2023-08-06T01:24:43;13.90;99.90
38604;DHT22;24924;50.054;8.790;2023-08-06T01:27:22;15.10;99.90
38604;DHT22;24924;50.054;8.790;2023-08-06T01:32:25;16.80;99.90
38604;DHT22;24924;50.054;8.790;2023-08-06T01:34:52;16.80;99.90
38604;DHT22;24924;50.054;8.790;2023-08-06T01:37:20;16.60;99.90
38604;DHT22;24924;50.054;8.790;2023-08-06T01:39:46;14.30;99.90
38604;DHT22;24924;50.054;8.790;2023-08-06T01:42:12;14.90;99.90
38604;DHT22;24924;50.054;8.790;2023-08-06T01:47:05;14.70;99.90
38604;DHT22;24924;50.054;8.790;2023-08-06T01:49:32;13.90;99.90
38604;DHT22;24924;50.054;8.790;2023-08-06T01:51:58;14.80;99.90
38604;DHT22;24924;50.054;8.790;2023-08-06T01:56:49;14.40;99.90
38604;DHT22;24924;50.054;8.790;2023-08-06T01:59:15;15.60;99.90
38604;DHT22;24924;50.054;8.790;2023-08-06T02:01:42;16.00;99.90
38604;DHT22;24924;50.054;8.790;2023-08-06T02:04:08;16.20;99.90
38604;DHT22;24924;50.054;8.790;2023-08-06T02:06:33;16.50;99.90
38604;DHT22;24924;50.054;8.790;2023-08-06T02:11:26;16.10;99.90
38604;DHT22;24924;50.054;8.790;2023-08-06T02:13:52;16.60;99.90
38604;DHT22;24924;50.054;8.790;2023-08-06T02:18:45;18.10;99.90
38604;DHT22;24924;50.054;8.790;2023-08-06T02:21:11;16.10;99.90
38604;DHT22;24924;50.054;8.790;2023-08-06T02:23:36;14.00;99.90
38604;DHT22;24924;50.054;8.790;2023-08-06T02:26:03;16.40;99.90
38604;DHT22;24924;50.054;8.790;2023-08-06T02:28:30;16.90;99.90
38604;DHT22;24924;50.054;8.790;2023-08-06T02:30:56;15.70;99.90
38604;DHT22;24924;50.054;8.790;2023-08-06T02:38:16;17.10;99.90
38604;DHT22;24924;50.054;8.790;2023-08-06T02:40:46;17.10;99.90
38604;DHT22;24924;50.054;8.790;2023-08-06T02:43:14;14.60;99.90
38604;DHT22;24924;50.054;8.790;2023-08-06T02:45:40;17.90;99.90
38604;DHT22;24924;50.054;8.790;2023-08-06T02:48:06;17.00;99.90
38604;DHT22;24924;50.054;8.790;2023-08-06T02:50:40;14.80;99.90
38604;DHT22;24924;50.054;8.790;2023-08-06T02:53:08;15.40;99.90
38604;DHT22;24924;50.054;8.790;2023-08-06T02:55:34;14.70;99.90
38604;DHT22;24924;50.054;8.790;2023-08-06T02:58:03;17.50;99.90
38604;DHT22;24924;50.054;8.790;2023-08-06T03:00:33;15.20;99.90
38604;DHT22;24924;50.054;8.790;2023-08-06T03:03:01;14.80;99.90
38604;DHT22;24924;50.054;8.790;2023-08-06T03:05:34;16.60;99.90
38604;DHT22;24924;50.054;8.790;2023-08-06T03:08:01;16.70;99.90
38604;DHT22;24924;50.054;8.790;2023-08-06T03:10:28;15.00;99.90
38604;DHT22;24924;50.054;8.790;2023-08-06T03:12:57;16.70;99.90
38604;DHT22;24924;50.054;8.790;2023-08-06T03:17:51;16.50;99.90
38604;DHT22;24924;50.054;8.790;2023-08-06T03:20:19;16.70;99.90
38604;DHT22;24924;50.054;8.790;2023-08-06T03:22:45;17.00;99.90
38604;DHT22;24924;50.054;8.790;2023-08-06T03:25:12;16.80;99.90
38604;DHT22;24924;50.054;8.790;2023-08-06T03:27:39;15.40;99.90
38604;DHT22;24924;50.054;8.790;2023-08-06T03:30:06;15.40;99.90
38604;DHT22;24924;50.054;8.790;2023-08-06T03:32:33;16.30;99.90
38604;DHT22;24924;50.054;8.790;2023-08-06T03:34:59;16.90;99.90
38604;DHT22;24924;50.054;8.790;2023-08-06T03:37:28;14.60;99.90
38604;DHT22;24924;50.054;8.790;2023-08-06T03:39:54;16.80;99.90
38604;DHT22;24924;50.054;8.790;2023-08-06T03:42:20;14.60;99.90
38604;DHT22;24924;50.054;8.790;2023-08-06T03:44:45;16.50;99.90
38604;DHT22;24924;50.054;8.790;2023-08-06T03:47:13;16.80;99.90
38604;DHT22;24924;50.054;8.790;2023-08-06T03:52:07;16.80;99.90
38604;DHT22;24924;50.054;8.790;2023-08-06T03:59:25;16.50;99.90
38604;DHT22;24924;50.054;8.790;2023-08-06T04:04:17;16.70;99.90
38604;DHT22;24924;50.054;8.790;2023-08-06T04:06:44;15.40;99.90
38604;DHT22;24924;50.054;8.790;2023-08-06T04:09:09;15.70;99.90
38604;DHT22;24924;50.054;8.790;2023-08-06T04:16:29;16.30;99.90
38604;DHT22;24924;50.054;8.790;2023-08-06T04:18:55;15.90;99.90
38604;DHT22;24924;50.054;8.790;2023-08-06T04:21:21;15.70;99.90
38604;DHT22;24924;50.054;8.790;2023-08-06T04:23:47;15.90;99.90
38604;DHT22;24924;50.054;8.790;2023-08-06T04:26:13;15.90;99.90
38604;DHT22;24924;50.054;8.790;2023-08-06T04:28:39;16.00;99.90
38604;DHT22;24924;50.054;8.790;2023-08-06T04:31:05;16.00;99.90
38604;DHT22;24924;50.054;8.790;2023-08-06T04:33:33;15.90;99.90
38604;DHT22;24924;50.054;8.790;2023-08-06T04:36:04;16.00;99.90
38604;DHT22;24924;50.054;8.790;2023-08-06T04:38:30;15.90;99.90
38604;DHT22;24924;50.054;8.790;2023-08-06T04:40:58;16.00;99.90
38604;DHT22;24924;50.054;8.790;2023-08-06T04:45:54;17.10;99.90
38604;DHT22;24924;50.054;8.790;2023-08-06T04:48:20;14.90;99.90
38604;DHT22;24924;50.054;8.790;2023-08-06T04:50:47;15.70;99.90
38604;DHT22;24924;50.054;8.790;2023-08-06T04:53:13;17.10;99.90
38604;DHT22;24924;50.054;8.790;2023-08-06T04:58:05;15.80;99.90
38604;DHT22;24924;50.054;8.790;2023-08-06T05:00:31;16.90;99.90
38604;DHT22;24924;50.054;8.790;2023-08-06T05:02:59;13.00;99.90
38604;DHT22;24924;50.054;8.790;2023-08-06T05:07:51;15.70;99.90
38604;DHT22;24924;50.054;8.790;2023-08-06T05:15:09;16.80;99.90
38604;DHT22;24924;50.054;8.790;2023-08-06T05:17:35;12.80;99.90
38604;DHT22;24924;50.054;8.790;2023-08-06T05:22:27;15.10;99.90
38604;DHT22;24924;50.054;8.790;2023-08-06T05:27:19;16.70;99.90
38604;DHT22;24924;50.054;8.790;2023-08-06T05:29:45;17.00;99.90
38604;DHT22;24924;50.054;8.790;2023-08-06T05:34:38;16.20;99.90
38604;DHT22;24924;50.054;8.790;2023-08-06T05:37:04;16.60;99.90
38604;DHT22;24924;50.054;8.790;2023-08-06T05:39:30;14.40;99.90
38604;DHT22;24924;50.054;8.790;2023-08-06T05:44:23;15.70;99.90
38604;DHT22;24924;50.054;8.790;2023-08-06T05:46:49;15.90;99.90
38604;DHT22;24924;50.054;8.790;2023-08-06T05:49:15;16.90;99.90
38604;DHT22;24924;50.054;8.790;2023-08-06T05:51:41;15.30;99.90
38604;DHT22;24924;50.054;8.790;2023-08-06T05:54:08;16.00;99.90
38604;DHT22;24924;50.054;8.790;2023-08-06T05:56:34;16.60;99.90
38604;DHT22;24924;50.054;8.790;2023-08-06T06:03:52;15.10;99.90
38604;DHT22;24924;50.054;8.790;2023-08-06T06:06:18;15.90;99.90
38604;DHT22;24924;50.054;8.790;2023-08-06T06:08:44;15.60;99.90
38604;DHT22;24924;50.054;8.790;2023-08-06T06:11:10;16.90;99.90
38604;DHT22;24924;50.054;8.790;2023-08-06T06:16:02;15.60;99.90
38604;DHT22;24924;50.054;8.790;2023-08-06T06:18:28;15.40;99.90
38604;DHT22;24924;50.054;8.790;2023-08-06T06:20:54;15.40;99.90
38604;DHT22;24924;50.054;8.790;2023-08-06T06:23:20;15.80;99.90
38604;DHT22;24924;50.054;8.790;2023-08-06T06:25:49;15.50;99.90
38604;DHT22;24924;50.054;8.790;2023-08-06T06:28:18;16.00;99.90
38604;DHT22;24924;50.054;8.790;2023-08-06T06:30:44;16.10;99.90
38604;DHT22;24924;50.054;8.790;2023-08-06T06:35:36;15.40;99.90
38604;DHT22;24924;50.054;8.790;2023-08-06T06:38:02;15.60;99.90
38604;DHT22;24924;50.054;8.790;2023-08-06T06:40:28;15.80;99.90
38604;DHT22;24924;50.054;8.790;2023-08-06T06:55:05;17.30;99.90
38604;DHT22;24924;50.054;8.790;2023-08-06T06:57:31;15.70;99.90
38604;DHT22;24924;50.054;8.790;2023-08-06T07:04:50;15.60;99.90
38604;DHT22;24924;50.054;8.790;2023-08-06T07:09:42;16.10;99.90
38604;DHT22;24924;50.054;8.790;2023-08-06T07:12:08;17.20;99.90
38604;DHT22;24924;50.054;8.790;2023-08-06T07:17:00;16.10;99.90
38604;DHT22;24924;50.054;8.790;2023-08-06T07:24:21;16.50;99.90
38604;DHT22;24924;50.054;8.790;2023-08-06T07:26:47;15.70;99.90
38604;DHT22;24924;50.054;8.790;2023-08-06T07:31:45;15.90;99.90
38604;DHT22;24924;50.054;8.790;2023-08-06T07:34:10;14.10;99.90
38604;DHT22;24924;50.054;8.790;2023-08-06T07:39:03;14.30;99.90
38604;DHT22;24924;50.054;8.790;2023-08-06T07:41:32;17.00;99.90
38604;DHT22;24924;50.054;8.790;2023-08-06T07:46:25;14.00;99.90
38604;DHT22;24924;50.054;8.790;2023-08-06T07:48:50;15.90;99.90
38604;DHT22;24924;50.054;8.790;2023-08-06T07:51:16;16.00;99.90
38604;DHT22;24924;50.054;8.790;2023-08-06T07:53:42;16.40;99.90
38604;DHT22;24924;50.054;8.790;2023-08-06T07:56:07;16.50;99.90
38604;DHT22;24924;50.054;8.790;2023-08-06T08:00:59;16.10;99.90
38604;DHT22;24924;50.054;8.790;2023-08-06T08:03:25;15.50;99.90
38604;DHT22;24924;50.054;8.790;2023-08-06T08:05:55;15.90;99.90
38604;DHT22;24924;50.054;8.790;2023-08-06T08:10:50;16.50;99.90
38604;DHT22;24924;50.054;8.790;2023-08-06T08:13:15;16.30;99.90
38604;DHT22;24924;50.054;8.790;2023-08-06T08:15:41;15.90;99.90
38604;DHT22;24924;50.054;8.790;2023-08-06T08:20:34;16.10;99.90
38604;DHT22;24924;50.054;8.790;2023-08-06T08:23:01;14.80;99.90
38604;DHT22;24924;50.054;8.790;2023-08-06T08:27:54;16.30;99.90
38604;DHT22;24924;50.054;8.790;2023-08-06T08:30:21;15.30;99.90
38604;DHT22;24924;50.054;8.790;2023-08-06T08:32:48;16.00;99.90
38604;DHT22;24924;50.054;8.790;2023-08-06T08:35:14;16.30;99.90
38604;DHT22;24924;50.054;8.790;2023-08-06T08:37:42;16.10;99.90
38604;DHT22;24924;50.054;8.790;2023-08-06T08:40:09;16.20;99.90
38604;DHT22;24924;50.054;8.790;2023-08-06T08:42:36;15.80;99.90
38604;DHT22;24924;50.054;8.790;2023-08-06T08:45:04;16.40;99.90
38604;DHT22;24924;50.054;8.790;2023-08-06T08:47:30;16.90;99.90
38604;DHT22;24924;50.054;8.790;2023-08-06T08:49:57;17.60;99.90
38604;DHT22;24924;50.054;8.790;2023-08-06T08:52:25;17.00;99.90
38604;DHT22;24924;50.054;8.790;2023-08-06T08:54:51;17.60;99.90
38604;DHT22;24924;50.054;8.790;2023-08-06T08:59:45;16.80;99.90
38604;DHT22;24924;50.054;8.790;2023-08-06T09:02:13;17.20;99.90
38604;DHT22;24924;50.054;8.790;2023-08-06T09:04:41;17.80;99.90
38604;DHT22;24924;50.054;8.790;2023-08-06T09:07:09;17.30;99.90
38604;DHT22;24924;50.054;8.790;2023-08-06T09:09:37;17.60;99.90
38604;DHT22;24924;50.054;8.790;2023-08-06T09:12:12;17.50;99.90
38604;DHT22;24924;50.054;8.790;2023-08-06T09:14:40;18.20;99.90
38604;DHT22;24924;50.054;8.790;2023-08-06T09:17:06;18.50;99.90
38604;DHT22;24924;50.054;8.790;2023-08-06T09:19:32;18.50;99.90
38604;DHT22;24924;50.054;8.790;2023-08-06T09:21:58;18.50;99.90
38604;DHT22;24924;50.054;8.790;2023-08-06T09:24:24;18.70;99.90
38604;DHT22;24924;50.054;8.790;2023-08-06T09:29:17;18.10;99.90
38604;DHT22;24924;50.054;8.790;2023-08-06T09:31:52;18.20;99.90
38604;DHT22;24924;50.054;8.790;2023-08-06T09:34:21;18.20;99.90
38604;DHT22;24924;50.054;8.790;2023-08-06T09:36:54;17.70;99.90
38604;DHT22;24924;50.054;8.790;2023-08-06T09:39:26;18.00;99.90
38604;DHT22;24924;50.054;8.790;2023-08-06T09:41:59;17.10;99.90
38604;DHT22;24924;50.054;8.790;2023-08-06T09:44:27;17.80;99.90
38604;DHT22;24924;50.054;8.790;2023-08-06T09:46:55;18.10;99.90
38604;DHT22;24924;50.054;8.790;2023-08-06T09:49:40;18.60;99.90
38604;DHT22;24924;50.054;8.790;2023-08-06T09:52:14;18.60;99.90
38604;DHT22;24924;50.054;8.790;2023-08-06T09:54:43;18.50;99.90
38604;DHT22;24924;50.054;8.790;2023-08-06T09:57:09;18.40;99.90
38604;DHT22;24924;50.054;8.790;2023-08-06T09:59:35;18.50;99.90
38604;DHT22;24924;50.054;8.790;2023-08-06T10:02:02;18.60;99.90
38604;DHT22;24924;50.054;8.790;2023-08-06T10:04:29;16.30;99.90
38604;DHT22;24924;50.054;8.790;2023-08-06T10:06:56;18.30;99.90
38604;DHT22;24924;50.054;8.790;2023-08-06T10:09:22;18.10;99.90
38604;DHT22;24924;50.054;8.790;2023-08-06T10:11:52;16.20;99.90
38604;DHT22;24924;50.054;8.790;2023-08-06T10:14:39;17.70;99.90
38604;DHT22;24924;50.054;8.790;2023-08-06T10:17:08;16.90;99.90
38604;DHT22;24924;50.054;8.790;2023-08-06T10:19:34;18.50;99.90
38604;DHT22;24924;50.054;8.790;2023-08-06T10:22:09;18.30;99.90
38604;DHT22;24924;50.054;8.790;2023-08-06T10:24:55;18.60;99.90
38604;DHT22;24924;50.054;8.790;2023-08-06T10:27:35;17.70;99.90
38604;DHT22;24924;50.054;8.790;2023-08-06T10:30:32;17.80;99.90
38604;DHT22;24924;50.054;8.790;2023-08-06T10:33:00;17.20;99.90
38604;DHT22;24924;50.054;8.790;2023-08-06T10:35:47;17.60;99.90
38604;DHT22;24924;50.054;8.790;2023-08-06T10:38:21;17.60;99.90
38604;DHT22;24924;50.054;8.790;2023-08-06T10:43:32;17.50;99.90
38604;DHT22;24924;50.054;8.790;2023-08-06T10:46:01;17.70;99.90
38604;DHT22;24924;50.054;8.790;2023-08-06T10:48:41;17.50;99.90
38604;DHT22;24924;50.054;8.790;2023-08-06T10:51:11;17.90;99.90
38604;DHT22;24924;50.054;8.790;2023-08-06T10:53:38;18.10;99.90
38604;DHT22;24924;50.054;8.790;2023-08-06T10:58:40;18.10;99.90
38604;DHT22;24924;50.054;8.790;2023-08-06T11:01:07;17.60;99.90
38604;DHT22;24924;50.054;8.790;2023-08-06T11:03:33;17.80;99.90
38604;DHT22;24924;50.054;8.790;2023-08-06T11:06:01;17.90;99.90
38604;DHT22;24924;50.054;8.790;2023-08-06T11:08:33;17.80;99.90
38604;DHT22;24924;50.054;8.790;2023-08-06T11:11:13;17.70;99.90
38604;DHT22;24924;50.054;8.790;2023-08-06T11:13:40;17.70;99.90
38604;DHT22;24924;50.054;8.790;2023-08-06T11:16:06;17.80;99.90
38604;DHT22;24924;50.054;8.790;2023-08-06T11:18:33;17.70;99.90
38604;DHT22;24924;50.054;8.790;2023-08-06T11:21:00;18.10;99.90
38604;DHT22;24924;50.054;8.790;2023-08-06T11:23:27;18.70;99.90
38604;DHT22;24924;50.054;8.790;2023-08-06T11:25:57;19.30;99.90
38604;DHT22;24924;50.054;8.790;2023-08-06T11:28:23;19.50;99.90
38604;DHT22;24924;50.054;8.790;2023-08-06T11:30:50;19.50;99.90
38604;DHT22;24924;50.054;8.790;2023-08-06T11:33:23;19.00;99.90
38604;DHT22;24924;50.054;8.790;2023-08-06T11:35:51;19.50;99.90
38604;DHT22;24924;50.054;8.790;2023-08-06T11:38:17;19.40;99.90
38604;DHT22;24924;50.054;8.790;2023-08-06T11:40:47;19.10;99.90
38604;DHT22;24924;50.054;8.790;2023-08-06T11:43:13;18.70;99.90
38604;DHT22;24924;50.054;8.790;2023-08-06T11:45:40;18.40;99.90
38604;DHT22;24924;50.054;8.790;2023-08-06T11:48:07;18.70;99.90
38604;DHT22;24924;50.054;8.790;2023-08-06T11:50:37;16.70;99.90
38604;DHT22;24924;50.054;8.790;2023-08-06T11:53:03;16.90;99.90
38604;DHT22;24924;50.054;8.790;2023-08-06T11:55:29;17.90;99.90
38604;DHT22;24924;50.054;8.790;2023-08-06T11:57:56;17.80;99.90
38604;DHT22;24924;50.054;8.790;2023-08-06T12:00:24;17.40;99.90
38604;DHT22;24924;50.054;8.790;2023-08-06T12:02:50;17.10;99.90
38604;DHT22;24924;50.054;8.790;2023-08-06T12:05:22;16.80;99.90
38604;DHT22;24924;50.054;8.790;2023-08-06T12:10:18;16.70;99.90
38604;DHT22;24924;50.054;8.790;2023-08-06T12:12:45;16.80;99.90
38604;DHT22;24924;50.054;8.790;2023-08-06T12:15:11;16.60;99.90
38604;DHT22;24924;50.054;8.790;2023-08-06T12:17:37;16.60;99.90
38604;DHT22;24924;50.054;8.790;2023-08-06T12:20:04;16.40;99.90
38604;DHT22;24924;50.054;8.790;2023-08-06T12:22:30;16.20;99.90
38604;DHT22;24924;50.054;8.790;2023-08-06T12:25:01;16.10;99.90
38604;DHT22;24924;50.054;8.790;2023-08-06T12:27:28;14.80;99.90
38604;DHT22;24924;50.054;8.790;2023-08-06T12:34:47;14.10;99.90
38604;DHT22;24924;50.054;8.790;2023-08-06T12:39:39;13.50;99.90
38604;DHT22;24924;50.054;8.790;2023-08-06T12:42:05;16.40;99.90
38604;DHT22;24924;50.054;8.790;2023-08-06T12:44:32;16.60;99.90
38604;DHT22;24924;50.054;8.790;2023-08-06T12:46:58;14.20;99.90
38604;DHT22;24924;50.054;8.790;2023-08-06T12:49:25;15.80;99.90
38604;DHT22;24924;50.054;8.790;2023-08-06T12:51:52;16.50;99.90
38604;DHT22;24924;50.054;8.790;2023-08-06T12:54:19;14.50;99.90
38604;DHT22;24924;50.054;8.790;2023-08-06T12:56:45;15.50;99.90
38604;DHT22;24924;50.054;8.790;2023-08-06T12:59:11;16.10;99.90
38604;DHT22;24924;50.054;8.790;2023-08-06T13:01:38;16.10;99.90
38604;DHT22;24924;50.054;8.790;2023-08-06T13:04:04;16.10;99.90
38604;DHT22;24924;50.054;8.790;2023-08-06T13:06:30;16.00;99.90
38604;DHT22;24924;50.054;8.790;2023-08-06T13:08:56;15.80;99.90
38604;DHT22;24924;50.054;8.790;2023-08-06T13:11:23;16.00;99.90
38604;DHT22;24924;50.054;8.790;2023-08-06T13:13:48;16.30;99.90
38604;DHT22;24924;50.054;8.790;2023-08-06T13:16:14;16.30;99.90
38604;DHT22;24924;50.054;8.790;2023-08-06T13:18:40;16.40;99.90
38604;DHT22;24924;50.054;8.790;2023-08-06T13:21:06;16.80;99.90
38604;DHT22;24924;50.054;8.790;2023-08-06T13:23:31;14.70;99.90
38604;DHT22;24924;50.054;8.790;2023-08-06T13:35:43;15.90;99.90
38604;DHT22;24924;50.054;8.790;2023-08-06T13:40:35;16.90;99.90
38604;DHT22;24924;50.054;8.790;2023-08-06T13:43:00;15.80;99.90
38604;DHT22;24924;50.054;8.790;2023-08-06T13:47:52;16.50;99.90
38604;DHT22;24924;50.054;8.790;2023-08-06T13:55:13;15.60;99.90
38604;DHT22;24924;50.054;8.790;2023-08-06T13:57:39;13.90;99.90
38604;DHT22;24924;50.054;8.790;2023-08-06T14:00:05;15.80;99.90
38604;DHT22;24924;50.054;8.790;2023-08-06T14:02:38;17.00;99.90
38604;DHT22;24924;50.054;8.790;2023-08-06T14:05:04;16.00;99.90
38604;DHT22;24924;50.054;8.790;2023-08-06T14:07:30;16.50;99.90
38604;DHT22;24924;50.054;8.790;2023-08-06T14:09:56;15.70;99.90
38604;DHT22;24924;50.054;8.790;2023-08-06T14:12:23;15.40;99.90
38604;DHT22;24924;50.054;8.790;2023-08-06T14:14:49;15.50;99.90
38604;DHT22;24924;50.054;8.790;2023-08-06T14:17:15;15.40;99.90
38604;DHT22;24924;50.054;8.790;2023-08-06T14:19:41;14.40;99.90
38604;DHT22;24924;50.054;8.790;2023-08-06T14:22:07;15.10;99.90
38604;DHT22;24924;50.054;8.790;2023-08-06T14:24:33;15.40;99.90
38604;DHT22;24924;50.054;8.790;2023-08-06T14:31:51;14.80;99.90
38604;DHT22;24924;50.054;8.790;2023-08-06T14:34:17;15.50;99.90
38604;DHT22;24924;50.054;8.790;2023-08-06T14:36:43;15.30;99.90
38604;DHT22;24924;50.054;8.790;2023-08-06T14:44:01;15.50;99.90
38604;DHT22;24924;50.054;8.790;2023-08-06T14:46:27;15.50;99.90
38604;DHT22;24924;50.054;8.790;2023-08-06T14:48:52;15.50;99.90
38604;DHT22;24924;50.054;8.790;2023-08-06T14:51:18;15.60;99.90
38604;DHT22;24924;50.054;8.790;2023-08-06T14:53:45;15.00;99.90
38604;DHT22;24924;50.054;8.790;2023-08-06T14:56:11;15.60;99.90
38604;DHT22;24924;50.054;8.790;2023-08-06T14:58:37;16.20;99.90
38604;DHT22;24924;50.054;8.790;2023-08-06T15:01:03;15.40;99.90
38604;DHT22;24924;50.054;8.790;2023-08-06T15:03:29;15.60;99.90
38604;DHT22;24924;50.054;8.790;2023-08-06T15:05:56;16.30;99.90
38604;DHT22;24924;50.054;8.790;2023-08-06T15:08:22;15.60;99.90
38604;DHT22;24924;50.054;8.790;2023-08-06T15:10:52;15.10;99.90
38604;DHT22;24924;50.054;8.790;2023-08-06T15:13:21;15.80;99.90
38604;DHT22;24924;50.054;8.790;2023-08-06T15:15:47;14.40;99.90
38604;DHT22;24924;50.054;8.790;2023-08-06T15:18:13;15.30;99.90
38604;DHT22;24924;50.054;8.790;2023-08-06T15:20:39;15.40;99.90
38604;DHT22;24924;50.054;8.790;2023-08-06T15:23:04;15.40;99.90
38604;DHT22;24924;50.054;8.790;2023-08-06T15:25:30;15.90;99.90
38604;DHT22;24924;50.054;8.790;2023-08-06T15:27:55;15.60;99.90
38604;DHT22;24924;50.054;8.790;2023-08-06T15:30:21;13.50;99.90
38604;DHT22;24924;50.054;8.790;2023-08-06T15:32:47;14.30;99.90
38604;DHT22;24924;50.054;8.790;2023-08-06T15:35:14;15.60;99.90
38604;DHT22;24924;50.054;8.790;2023-08-06T15:40:06;14.60;99.90
38604;DHT22;24924;50.054;8.790;2023-08-06T15:47:25;15.40;99.90
38604;DHT22;24924;50.054;8.790;2023-08-06T15:49:50;15.50;99.90
38604;DHT22;24924;50.054;8.790;2023-08-06T15:54:46;15.20;99.90
38604;DHT22;24924;50.054;8.790;2023-08-06T15:57:11;15.20;99.90
38604;DHT22;24924;50.054;8.790;2023-08-06T15:59:37;15.20;99.90
38604;DHT22;24924;50.054;8.790;2023-08-06T16:02:03;15.40;99.90
38604;DHT22;24924;50.054;8.790;2023-08-06T16:04:30;15.70;99.90
38604;DHT22;24924;50.054;8.790;2023-08-06T16:06:57;15.20;99.90
38604;DHT22;24924;50.054;8.790;2023-08-06T16:09:23;14.50;99.90
38604;DHT22;24924;50.054;8.790;2023-08-06T16:11:50;15.30;99.90
38604;DHT22;24924;50.054;8.790;2023-08-06T16:14:16;15.30;99.90
38604;DHT22;24924;50.054;8.790;2023-08-06T16:16:42;13.80;99.90
38604;DHT22;24924;50.054;8.790;2023-08-06T16:19:08;14.60;99.90
38604;DHT22;24924;50.054;8.790;2023-08-06T16:21:34;15.30;99.90
38604;DHT22;24924;50.054;8.790;2023-08-06T16:26:27;15.40;99.90
38604;DHT22;24924;50.054;8.790;2023-08-06T16:28:53;15.40;99.90
38604;DHT22;24924;50.054;8.790;2023-08-06T16:31:20;15.40;99.90
38604;DHT22;24924;50.054;8.790;2023-08-06T16:38:37;16.80;99.90
38604;DHT22;24924;50.054;8.790;2023-08-06T16:45:56;16.50;99.90
38604;DHT22;24924;50.054;8.790;2023-08-06T16:50:57;15.10;99.90
38604;DHT22;24924;50.054;8.790;2023-08-06T16:58:17;12.60;99.90
38604;DHT22;24924;50.054;8.790;2023-08-06T17:00:46;14.70;99.90
38604;DHT22;24924;50.054;8.790;2023-08-06T17:03:15;15.70;99.90
38604;DHT22;24924;50.054;8.790;2023-08-06T17:08:07;14.60;99.90
38604;DHT22;24924;50.054;8.790;2023-08-06T17:10:33;14.30;99.90
38604;DHT22;24924;50.054;8.790;2023-08-06T17:12:59;12.50;99.90
38604;DHT22;24924;50.054;8.790;2023-08-06T17:17:52;14.50;99.90
38604;DHT22;24924;50.054;8.790;2023-08-06T17:20:18;15.50;99.90
38604;DHT22;24924;50.054;8.790;2023-08-06T17:27:36;14.60;99.90
38604;DHT22;24924;50.054;8.790;2023-08-06T17:30:02;14.50;99.90
38604;DHT22;24924;50.054;8.790;2023-08-06T17:39:46;12.50;99.90
38604;DHT22;24924;50.054;8.790;2023-08-06T17:44:39;14.30;99.90
38604;DHT22;24924;50.054;8.790;2023-08-06T17:47:05;14.30;99.90
38604;DHT22;24924;50.054;8.790;2023-08-06T17:49:31;14.30;99.90
38604;DHT22;24924;50.054;8.790;2023-08-06T17:51:58;14.30;99.90
38604;DHT22;24924;50.054;8.790;2023-08-06T17:54:23;14.30;99.90
38604;DHT22;24924;50.054;8.790;2023-08-06T17:56:50;14.80;99.90
38604;DHT22;24924;50.054;8.790;2023-08-06T18:01:42;14.70;99.90
38604;DHT22;24924;50.054;8.790;2023-08-06T18:04:08;14.80;99.90
38604;DHT22;24924;50.054;8.790;2023-08-06T18:06:35;13.00;99.90
38604;DHT22;24924;50.054;8.790;2023-08-06T18:11:27;15.00;99.90
38604;DHT22;24924;50.054;8.790;2023-08-06T18:21:13;11.90;99.90
38604;DHT22;24924;50.054;8.790;2023-08-06T18:23:39;14.60;99.90
38604;DHT22;24924;50.054;8.790;2023-08-06T18:26:05;13.90;99.90
38604;DHT22;24924;50.054;8.790;2023-08-06T18:28:31;14.90;99.90
38604;DHT22;24924;50.054;8.790;2023-08-06T18:35:49;12.30;99.90
38604;DHT22;24924;50.054;8.790;2023-08-06T18:38:15;14.50;99.90
38604;DHT22;24924;50.054;8.790;2023-08-06T18:43:07;14.00;99.90
38604;DHT22;24924;50.054;8.790;2023-08-06T18:48:05;14.10;99.90
38604;DHT22;24924;50.054;8.790;2023-08-06T18:53:05;14.10;99.90
38604;DHT22;24924;50.054;8.790;2023-08-06T18:58:00;14.10;99.90
38604;DHT22;24924;50.054;8.790;2023-08-06T19:00:26;14.60;99.90
38604;DHT22;24924;50.054;8.790;2023-08-06T19:02:52;14.40;99.90
38604;DHT22;24924;50.054;8.790;2023-08-06T19:07:44;15.70;99.90
38604;DHT22;24924;50.054;8.790;2023-08-06T19:15:02;13.70;99.90
38604;DHT22;24924;50.054;8.790;2023-08-06T19:22:20;12.40;99.90
38604;DHT22;24924;50.054;8.790;2023-08-06T19:24:46;14.60;99.90
38604;DHT22;24924;50.054;8.790;2023-08-06T19:32:05;15.30;99.90
38604;DHT22;24924;50.054;8.790;2023-08-06T19:34:32;15.60;99.90
38604;DHT22;24924;50.054;8.790;2023-08-06T19:36:57;12.70;99.90
38604;DHT22;24924;50.054;8.790;2023-08-06T19:39:23;13.90;99.90
38604;DHT22;24924;50.054;8.790;2023-08-06T19:41:49;13.90;99.90
38604;DHT22;24924;50.054;8.790;2023-08-06T19:44:14;14.10;99.90
38604;DHT22;24924;50.054;8.790;2023-08-06T19:49:06;13.90;99.90
38604;DHT22;24924;50.054;8.790;2023-08-06T19:51:32;14.40;99.90
38604;DHT22;24924;50.054;8.790;2023-08-06T19:53:58;15.70;99.90
38604;DHT22;24924;50.054;8.790;2023-08-06T19:58:50;15.40;99.90
38604;DHT22;24924;50.054;8.790;2023-08-06T20:01:15;14.20;99.90
38604;DHT22;24924;50.054;8.790;2023-08-06T20:03:41;15.20;99.90
38604;DHT22;24924;50.054;8.790;2023-08-06T20:08:35;11.00;99.90
38604;DHT22;24924;50.054;8.790;2023-08-06T20:11:01;14.50;99.90
38604;DHT22;24924;50.054;8.790;2023-08-06T20:13:29;13.90;99.90
38604;DHT22;24924;50.054;8.790;2023-08-06T20:20:54;12.20;99.90
38604;DHT22;24924;50.054;8.790;2023-08-06T20:23:20;14.50;99.90
38604;DHT22;24924;50.054;8.790;2023-08-06T20:25:46;13.40;99.90
38604;DHT22;24924;50.054;8.790;2023-08-06T20:28:13;13.50;99.90
38604;DHT22;24924;50.054;8.790;2023-08-06T20:30:42;13.50;99.90
38604;DHT22;24924;50.054;8.790;2023-08-06T20:33:09;14.80;99.90